Rogers, Arkansas
Current Conditions -  °F | °C
As of 7:57 AM on Friday 28 Nov 2014 (Local Time) from KROG Reporting Station
Clear Clear  
Wind Chill: 32°   Ceiling: Unl
Heat Index: 40°   Visibility: 10mi
Dew Point: 27°   Wind: 14mph
Humidity: 60%   Direction: 180°S
Pressure: 30.16"   Gusts: NA
Location:  36.33°N, 94.12°W
Report Text: KROG 281357Z 18012KT 10SM CLR 04/M03 A3016 RMK AO2 SLP220 T00441028
Loading
Personal Weather Stations






























Interactive Weather Map New forecast layout! Learn more

10-Day Weather Forecast

Advertisements
Track Severe Weather on mobile